sensor_id;sensor_type;location;lat;lon;timestamp;P1;durP1;ratioP1;P2;durP2;ratioP2
79781;SDS011;69262;48.470;7.960;2023-05-14T10:18:26;5.95;;;3.55;;
79781;SDS011;69262;48.470;7.960;2023-05-14T10:21:30;3.05;;;2.60;;
79781;SDS011;69262;48.470;7.960;2023-05-14T10:24:35;5.45;;;3.03;;
79781;SDS011;69262;48.470;7.960;2023-05-14T10:27:38;4.82;;;2.95;;
79781;SDS011;69262;48.470;7.960;2023-05-14T10:30:43;7.55;;;2.75;;
79781;SDS011;69262;48.470;7.960;2023-05-14T10:33:48;3.47;;;2.78;;
79781;SDS011;69262;48.470;7.960;2023-05-14T10:36:49;2.63;;;2.42;;
79781;SDS011;69262;48.470;7.960;2023-05-14T10:39:50;4.20;;;3.17;;
79781;SDS011;69262;48.470;7.960;2023-05-14T10:42:55;5.05;;;2.88;;
79781;SDS011;69262;48.470;7.960;2023-05-14T10:45:58;2.60;;;2.40;;
79781;SDS011;69262;48.470;7.960;2023-05-14T10:48:59;2.40;;;2.20;;
79781;SDS011;69262;48.470;7.960;2023-05-14T10:51:59;2.58;;;2.38;;
79781;SDS011;69262;48.470;7.960;2023-05-14T10:55:04;4.75;;;2.67;;
79781;SDS011;69262;48.470;7.960;2023-05-14T10:58:09;3.00;;;2.58;;
79781;SDS011;69262;48.470;7.960;2023-05-14T11:01:11;4.72;;;2.75;;
79781;SDS011;69262;48.470;7.960;2023-05-14T11:04:18;2.30;;;2.10;;
79781;SDS011;69262;48.470;7.960;2023-05-14T11:07:29;7.60;;;2.50;;
79781;SDS011;69262;48.470;7.960;2023-05-14T11:10:30;3.38;;;2.38;;
79781;SDS011;69262;48.470;7.960;2023-05-14T11:13:31;2.95;;;2.10;;
79781;SDS011;69262;48.470;7.960;2023-05-14T11:16:33;2.50;;;2.30;;
79781;SDS011;69262;48.470;7.960;2023-05-14T11:19:34;2.50;;;2.20;;
79781;SDS011;69262;48.470;7.960;2023-05-14T11:22:35;2.33;;;2.13;;
79781;SDS011;69262;48.470;7.960;2023-05-14T11:25:36;5.05;;;2.50;;
79781;SDS011;69262;48.470;7.960;2023-05-14T11:28:37;2.80;;;2.10;;
79781;SDS011;69262;48.470;7.960;2023-05-14T11:31:37;2.65;;;2.40;;
79781;SDS011;69262;48.470;7.960;2023-05-14T11:34:39;2.65;;;2.45;;
79781;SDS011;69262;48.470;7.960;2023-05-14T11:37:41;2.63;;;2.40;;
79781;SDS011;69262;48.470;7.960;2023-05-14T11:40:50;2.50;;;2.30;;
79781;SDS011;69262;48.470;7.960;2023-05-14T11:43:53;2.35;;;2.15;;
79781;SDS011;69262;48.470;7.960;2023-05-14T11:46:54;1.92;;;1.73;;
79781;SDS011;69262;48.470;7.960;2023-05-14T11:49:56;2.97;;;2.25;;
79781;SDS011;69262;48.470;7.960;2023-05-14T11:52:56;3.20;;;2.20;;
79781;SDS011;69262;48.470;7.960;2023-05-14T11:55:56;2.17;;;2.08;;
79781;SDS011;69262;48.470;7.960;2023-05-14T11:58:57;2.40;;;2.20;;
79781;SDS011;69262;48.470;7.960;2023-05-14T12:01:57;10.93;;;2.33;;
79781;SDS011;69262;48.470;7.960;2023-05-14T12:04:58;2.45;;;2.20;;
79781;SDS011;69262;48.470;7.960;2023-05-14T12:07:59;2.15;;;1.90;;
79781;SDS011;69262;48.470;7.960;2023-05-14T12:11:00;2.67;;;1.88;;
79781;SDS011;69262;48.470;7.960;2023-05-14T12:14:00;2.10;;;1.90;;
79781;SDS011;69262;48.470;7.960;2023-05-14T12:17:00;2.03;;;1.92;;
79781;SDS011;69262;48.470;7.960;2023-05-14T12:20:01;2.60;;;1.98;;
79781;SDS011;69262;48.470;7.960;2023-05-14T12:23:01;4.05;;;2.15;;
79781;SDS011;69262;48.470;7.960;2023-05-14T12:26:02;1.90;;;1.80;;
79781;SDS011;69262;48.470;7.960;2023-05-14T12:29:05;2.35;;;1.80;;
79781;SDS011;69262;48.470;7.960;2023-05-14T12:32:08;2.10;;;1.90;;
79781;SDS011;69262;48.470;7.960;2023-05-14T12:35:09;2.25;;;2.15;;
79781;SDS011;69262;48.470;7.960;2023-05-14T12:38:10;2.05;;;1.95;;
79781;SDS011;69262;48.470;7.960;2023-05-14T12:41:10;2.13;;;2.00;;
79781;SDS011;69262;48.470;7.960;2023-05-14T12:44:11;2.08;;;1.88;;
79781;SDS011;69262;48.470;7.960;2023-05-14T12:47:11;4.60;;;2.05;;
79781;SDS011;69262;48.470;7.960;2023-05-14T12:50:11;1.77;;;1.67;;
79781;SDS011;69262;48.470;7.960;2023-05-14T12:53:12;2.20;;;2.00;;
79781;SDS011;69262;48.470;7.960;2023-05-14T12:56:15;2.45;;;1.98;;
79781;SDS011;69262;48.470;7.960;2023-05-14T12:59:15;3.28;;;1.75;;
79781;SDS011;69262;48.470;7.960;2023-05-14T13:02:16;1.95;;;1.85;;
79781;SDS011;69262;48.470;7.960;2023-05-14T13:05:17;2.00;;;1.80;;
79781;SDS011;69262;48.470;7.960;2023-05-14T13:08:18;1.90;;;1.80;;
79781;SDS011;69262;48.470;7.960;2023-05-14T13:11:20;2.28;;;2.08;;
79781;SDS011;69262;48.470;7.960;2023-05-14T13:14:21;2.40;;;1.95;;
79781;SDS011;69262;48.470;7.960;2023-05-14T13:17:22;2.45;;;2.00;;
79781;SDS011;69262;48.470;7.960;2023-05-14T13:20:22;1.92;;;1.80;;
79781;SDS011;69262;48.470;7.960;2023-05-14T13:23:24;3.65;;;1.83;;
79781;SDS011;69262;48.470;7.960;2023-05-14T13:26:25;1.92;;;1.83;;
79781;SDS011;69262;48.470;7.960;2023-05-14T13:29:27;6.05;;;2.25;;
79781;SDS011;69262;48.470;7.960;2023-05-14T13:32:30;1.83;;;1.73;;
79781;SDS011;69262;48.470;7.960;2023-05-14T13:35:31;2.35;;;2.15;;
79781;SDS011;69262;48.470;7.960;2023-05-14T13:38:32;3.75;;;2.08;;
79781;SDS011;69262;48.470;7.960;2023-05-14T13:41:32;2.05;;;1.77;;
79781;SDS011;69262;48.470;7.960;2023-05-14T13:44:36;2.03;;;1.92;;
79781;SDS011;69262;48.470;7.960;2023-05-14T13:47:37;4.10;;;1.77;;
79781;SDS011;69262;48.470;7.960;2023-05-14T13:50:37;2.17;;;1.98;;
79781;SDS011;69262;48.470;7.960;2023-05-14T13:53:38;3.17;;;2.10;;
79781;SDS011;69262;48.470;7.960;2023-05-14T13:56:38;1.80;;;1.70;;
79781;SDS011;69262;48.470;7.960;2023-05-14T13:59:38;1.70;;;1.60;;
79781;SDS011;69262;48.470;7.960;2023-05-14T14:02:39;1.80;;;1.70;;
79781;SDS011;69262;48.470;7.960;2023-05-14T14:05:40;1.92;;;1.70;;
79781;SDS011;69262;48.470;7.960;2023-05-14T14:08:40;2.97;;;1.90;;
79781;SDS011;69262;48.470;7.960;2023-05-14T14:11:40;1.98;;;1.88;;
79781;SDS011;69262;48.470;7.960;2023-05-14T14:14:41;2.03;;;1.92;;
79781;SDS011;69262;48.470;7.960;2023-05-14T14:17:41;3.13;;;1.90;;
79781;SDS011;69262;48.470;7.960;2023-05-14T14:20:42;2.90;;;1.73;;
79781;SDS011;69262;48.470;7.960;2023-05-14T14:23:44;1.67;;;1.58;;
79781;SDS011;69262;48.470;7.960;2023-05-14T14:26:45;2.28;;;2.17;;
79781;SDS011;69262;48.470;7.960;2023-05-14T14:29:45;2.00;;;1.90;;
79781;SDS011;69262;48.470;7.960;2023-05-14T14:32:46;1.65;;;1.55;;
79781;SDS011;69262;48.470;7.960;2023-05-14T14:35:47;3.78;;;1.88;;
79781;SDS011;69262;48.470;7.960;2023-05-14T14:38:48;2.13;;;1.98;;
79781;SDS011;69262;48.470;7.960;2023-05-14T14:41:48;1.98;;;1.88;;
